Allen, Indiana
Current Conditions -  °F | °C
As of 7:15 PM on Thursday 27 Nov 2014 (Local Time) from KGWB Reporting Station
Light Snow Light Snow  
Wind Chill: -7°   Ceiling: 2500
Heat Index: -2°   Visibility: 10mi
Dew Point: -5°   Wind: 9mph
Humidity: 80%   Direction: 290°WNW
Pressure: 30.32"   Gusts: 16mph
Location:  41.4608°N, 85.2531°W
Report Text: KGWB 280015Z AUTO 29008G14KT 10SM -SN SCT012 OVC025 M02/M05 A3032 RMK AO2
Loading
Personal Weather Stations






























Interactive Weather Map New forecast layout! Learn more

10-Day Weather Forecast

Advertisements
Track Severe Weather on mobile